createdAt,value
2018-04-06T04:00:37.730Z,87.65
2018-04-06T04:01:03.238Z,87.55
2018-04-06T04:01:28.736Z,87.84
2018-04-06T04:01:54.229Z,87.65
2018-04-06T04:02:19.728Z,87.65
2018-04-06T04:02:45.225Z,87.65
2018-04-06T04:03:10.716Z,87.65
2018-04-06T04:03:36.240Z,87.74
2018-04-06T04:04:01.752Z,87.65
2018-04-06T04:04:27.259Z,87.74
2018-04-06T04:04:52.741Z,88.21
2018-04-06T04:05:18.239Z,87.93
2018-04-06T04:05:43.738Z,88.02
2018-04-06T04:06:09.245Z,88.21
2018-04-06T04:06:34.744Z,88.02
2018-04-06T04:07:00.254Z,88.02
2018-04-06T04:07:25.776Z,88.21
2018-04-06T04:07:51.302Z,88.21
2018-04-06T04:08:16.798Z,88.02
2018-04-06T04:08:42.293Z,88.21
2018-04-06T04:09:07.781Z,87.74
2018-04-06T04:09:33.280Z,87.74
2018-04-06T04:09:58.770Z,87.84
2018-04-06T04:10:24.264Z,87.93
2018-04-06T04:10:49.760Z,88.02
2018-04-06T04:11:15.260Z,88.02
2018-04-06T04:11:40.767Z,87.74
2018-04-06T04:12:06.251Z,88.21
2018-04-06T04:12:31.722Z,88.21
2018-04-06T04:12:57.212Z,87.93
2018-04-06T04:13:22.712Z,87.74
2018-04-06T04:13:48.207Z,87.84
2018-04-06T04:14:13.703Z,87.74
2018-04-06T04:14:39.194Z,88.02
2018-04-06T04:15:04.681Z,87.74
2018-04-06T04:15:30.180Z,88.02
2018-04-06T04:15:55.687Z,87.74
2018-04-06T04:16:21.186Z,87.55
2018-04-06T04:16:46.684Z,87.55
2018-04-06T04:17:12.188Z,87.55
2018-04-06T04:17:37.683Z,87.55
2018-04-06T04:18:03.189Z,87.55
2018-04-06T04:18:28.692Z,87.55
2018-04-06T04:18:54.169Z,87.74
2018-04-06T04:19:19.678Z,87.27
2018-04-06T04:19:45.176Z,87.55
2018-04-06T04:20:10.682Z,87.55
2018-04-06T04:20:36.171Z,87.55
2018-04-06T04:21:01.668Z,87.65
2018-04-06T04:21:27.176Z,87.65
2018-04-06T04:21:52.671Z,87.55
2018-04-06T04:22:18.163Z,87.74
2018-04-06T04:22:43.651Z,87.74
2018-04-06T04:23:09.158Z,87.55
2018-04-06T04:23:34.645Z,87.55
2018-04-06T04:24:00.148Z,87.65
2018-04-06T04:24:25.644Z,87.65
2018-04-06T04:24:51.157Z,87.65
2018-04-06T04:25:16.660Z,87.74
2018-04-06T04:25:42.157Z,87.65
2018-04-06T04:26:07.654Z,87.55
2018-04-06T04:26:33.152Z,87.46
2018-04-06T04:27:41.862Z,87.93
2018-04-06T04:28:07.369Z,87.74
2018-04-06T04:28:32.869Z,87.74
2018-04-06T04:28:58.367Z,88.02
2018-04-06T04:29:23.866Z,87.93
2018-04-06T04:29:49.363Z,88.12
2018-04-06T04:30:14.857Z,87.93
2018-04-06T04:30:40.358Z,88.31
2018-04-06T04:31:05.857Z,88.49
2018-04-06T04:31:31.356Z,88.49
2018-04-06T04:31:56.833Z,88.68
2018-04-06T04:32:22.353Z,88.49
2018-04-06T04:32:47.826Z,88.49
2018-04-06T04:33:13.326Z,88.49
2018-04-06T04:33:38.825Z,88.21
2018-04-06T04:34:04.321Z,88.49
2018-04-06T04:34:29.869Z,88.49
2018-04-06T04:34:55.316Z,88.4
2018-04-06T04:35:20.825Z,88.4
2018-04-06T04:35:46.315Z,88.12
2018-04-06T04:36:11.814Z,88.68
2018-04-06T04:36:37.314Z,88.49
2018-04-06T04:37:02.809Z,88.49
2018-04-06T04:37:28.307Z,88.49
2018-04-06T04:37:53.814Z,88.4
2018-04-06T04:38:19.301Z,88.59
2018-04-06T04:38:44.807Z,88.49
2018-04-06T04:39:10.310Z,88.12
2018-04-06T04:39:35.805Z,88.4
2018-04-06T04:40:01.358Z,88.12
2018-04-06T04:40:26.792Z,88.4
2018-04-06T04:40:52.286Z,88.31
2018-04-06T04:41:17.785Z,88.31
2018-04-06T04:41:43.284Z,88.21
2018-04-06T04:42:08.782Z,88.59
2018-04-06T04:42:34.272Z,88.4
2018-04-06T04:42:59.776Z,88.4
2018-04-06T04:43:25.276Z,88.21
2018-04-06T04:43:50.790Z,88.31
2018-04-06T04:44:16.290Z,88.21
2018-04-06T04:44:41.790Z,88.21
2018-04-06T04:45:07.289Z,88.49
2018-04-06T04:45:32.789Z,88.4
2018-04-06T04:45:58.291Z,89.06
2018-04-06T04:46:23.790Z,89.06
2018-04-06T04:46:49.276Z,89.06
2018-04-06T04:47:14.790Z,88.68
2018-04-06T04:47:40.283Z,88.68
2018-04-06T04:48:05.770Z,88.87
2018-04-06T04:48:31.276Z,88.83
2018-04-06T04:48:56.770Z,88.87
2018-04-06T04:49:22.273Z,88.97
2018-04-06T04:49:47.762Z,89.06
2018-04-06T04:50:13.256Z,88.87
2018-04-06T04:50:38.756Z,88.74
2018-04-06T04:51:04.261Z,89.06
2018-04-06T04:51:29.756Z,88.87
2018-04-06T04:51:55.256Z,89.06
2018-04-06T04:52:20.745Z,89.06
2018-04-06T04:52:46.277Z,89.06
2018-04-06T04:53:11.848Z,88.87
2018-04-06T04:53:37.311Z,88.68
2018-04-06T04:54:02.807Z,89.12
2018-04-06T04:54:28.306Z,88.68
2018-04-06T04:54:53.864Z,88.97
2018-04-06T04:55:19.362Z,89.16
2018-04-06T04:55:44.860Z,88.93
2018-04-06T04:56:10.355Z,89.16
2018-04-06T04:56:35.850Z,88.49
2018-04-06T04:57:01.359Z,89.16
2018-04-06T04:57:26.861Z,88.49
2018-04-06T04:57:52.372Z,88.78
2018-04-06T04:58:17.847Z,88.87
2018-04-06T04:58:43.351Z,88.97
2018-04-06T04:59:08.842Z,89.16
2018-04-06T04:59:34.339Z,89.06
2018-04-06T04:59:59.838Z,88.68
2018-04-06T05:00:25.342Z,88.78
2018-04-06T05:00:50.839Z,89.06
2018-04-06T05:01:16.335Z,88.97
2018-04-06T05:01:41.837Z,88.68
2018-04-06T05:02:07.328Z,88.31
2018-04-06T05:02:32.818Z,88.93
2018-04-06T05:02:58.317Z,89.06
2018-04-06T05:03:23.814Z,88.68
2018-04-06T05:03:49.308Z,88.97
2018-04-06T05:04:14.824Z,88.87
2018-04-06T05:04:40.315Z,88.97
2018-04-06T05:05:05.824Z,88.87
2018-04-06T05:05:31.315Z,88.78
2018-04-06T05:05:56.808Z,88.87
2018-04-06T05:06:22.323Z,88.59
2018-04-06T05:06:47.844Z,88.97
2018-04-06T05:07:13.448Z,88.59
2018-04-06T05:07:39.525Z,88.97
2018-04-06T05:08:05.018Z,88.68
2018-04-06T05:08:30.504Z,89.25
2018-04-06T05:08:55.997Z,88.49
2018-04-06T05:09:21.497Z,89.25
2018-04-06T05:09:46.996Z,88.68
2018-04-06T05:10:12.494Z,89.35
2018-04-06T05:10:37.995Z,88.64
2018-04-06T05:11:03.496Z,89.35
2018-04-06T05:11:28.991Z,88.31
2018-04-06T05:11:54.496Z,89.16
2018-04-06T05:12:19.986Z,88.87
2018-04-06T05:12:45.482Z,88.78
2018-04-06T05:13:10.986Z,88.59
2018-04-06T05:13:36.475Z,88.78
2018-04-06T05:14:01.980Z,89.16
2018-04-06T05:14:27.520Z,88.78
2018-04-06T05:14:53.014Z,88.78
2018-04-06T05:15:18.503Z,88.68
2018-04-06T05:15:44.002Z,88.78
2018-04-06T05:16:09.487Z,88.97
2018-04-06T05:16:34.989Z,88.87
2018-04-06T05:17:01.056Z,89.16
2018-04-06T05:17:26.546Z,88.78
2018-04-06T05:17:52.045Z,88.4
2018-04-06T05:18:17.552Z,88.87
2018-04-06T05:18:43.042Z,88.78
2018-04-06T05:19:08.529Z,88.97
2018-04-06T05:19:34.009Z,88.87
2018-04-06T05:19:59.540Z,88.83
2018-04-06T05:20:25.056Z,88.78
2018-04-06T05:20:50.573Z,88.59
2018-04-06T05:21:16.043Z,88.87
2018-04-06T05:21:41.529Z,88.31
2018-04-06T05:22:07.031Z,89.06
2018-04-06T05:22:32.509Z,89.25
2018-04-06T05:22:57.996Z,89.06
2018-04-06T05:23:23.486Z,89.06
2018-04-06T05:23:48.987Z,89.25
2018-04-06T05:24:14.476Z,88.87
2018-04-06T05:24:40.039Z,88.97
2018-04-06T05:25:05.488Z,89.16
2018-04-06T05:25:30.990Z,88.68
2018-04-06T05:25:56.480Z,88.68
2018-04-06T05:26:21.956Z,89.06
2018-04-06T05:26:47.445Z,88.68
2018-04-06T05:27:12.946Z,88.87
2018-04-06T05:27:38.434Z,88.87
2018-04-06T05:28:03.917Z,88.97
2018-04-06T05:28:29.382Z,89.16
2018-04-06T05:28:54.911Z,89.16
2018-04-06T05:29:20.402Z,88.78
2018-04-06T05:29:45.901Z,88.87
2018-04-06T05:30:11.401Z,88.97
2018-04-06T05:30:36.881Z,89.16
2018-04-06T05:31:02.374Z,88.68
2018-04-06T05:31:27.893Z,88.59
2018-04-06T05:31:53.395Z,88.78
2018-04-06T05:32:18.941Z,88.21
2018-04-06T05:32:44.387Z,88.68
2018-04-06T05:33:09.893Z,88.97
2018-04-06T05:33:35.399Z,88.78
2018-04-06T05:34:00.895Z,88.31
2018-04-06T05:34:26.396Z,88.97
2018-04-06T05:34:51.890Z,88.97
2018-04-06T05:35:17.384Z,88.87
2018-04-06T05:35:42.891Z,88.4
2018-04-06T05:36:08.384Z,88.68
2018-04-06T05:36:33.874Z,88.97
2018-04-06T05:36:59.380Z,89.63
2018-04-06T05:37:24.874Z,88.21
2018-04-06T05:37:50.372Z,88.87
2018-04-06T05:38:15.873Z,88.68
2018-04-06T05:38:41.430Z,88.49
2018-04-06T05:39:06.870Z,88.59
2018-04-06T05:39:32.365Z,88.68
2018-04-06T05:39:57.862Z,88.68
2018-04-06T05:40:23.366Z,88.87
2018-04-06T05:40:48.868Z,89.44
2018-04-06T05:41:14.367Z,89.54
2018-04-06T05:41:39.859Z,89.35
2018-04-06T05:42:05.362Z,89.35
2018-04-06T05:42:30.860Z,88.68
2018-04-06T05:42:56.358Z,88.68
2018-04-06T05:43:21.856Z,88.68
2018-04-06T05:43:47.356Z,88.68
2018-04-06T05:44:12.848Z,88.87
2018-04-06T05:44:38.350Z,88.87
2018-04-06T05:45:03.845Z,88.68
2018-04-06T05:45:29.349Z,88.97
2018-04-06T05:45:54.866Z,88.59
2018-04-06T05:46:20.357Z,88.78
2018-04-06T05:46:45.850Z,88.87
2018-04-06T05:47:11.355Z,88.78
2018-04-06T05:47:36.899Z,88.78
2018-04-06T05:48:02.444Z,89.16
2018-04-06T05:48:27.921Z,89.16
2018-04-06T05:48:53.423Z,88.68
2018-04-06T05:49:18.935Z,89.16
2018-04-06T05:49:44.434Z,88.87
2018-04-06T05:50:09.928Z,88.78
2018-04-06T05:50:35.424Z,88.78
2018-04-06T05:51:00.917Z,88.97
2018-04-06T05:51:26.423Z,89.06
2018-04-06T05:51:51.925Z,89.06
2018-04-06T05:52:17.422Z,88.97
2018-04-06T05:52:42.922Z,88.97
2018-04-06T05:53:08.457Z,88.78
2018-04-06T05:53:33.917Z,88.97
2018-04-06T05:53:59.421Z,88.97
2018-04-06T05:54:24.920Z,89.16
2018-04-06T05:54:50.423Z,88.87
2018-04-06T05:55:15.930Z,88.68
2018-04-06T05:55:41.458Z,88.49
2018-04-06T05:56:06.970Z,89.35
2018-04-06T05:56:32.486Z,89.16
2018-04-06T05:56:57.994Z,88.59
2018-04-06T05:57:23.495Z,89.16
2018-04-06T05:57:48.985Z,89.06
2018-04-06T05:58:14.487Z,88.87
2018-04-06T05:58:39.979Z,89.06
2018-04-06T05:59:05.480Z,88.78
2018-04-06T05:59:30.979Z,88.97
2018-04-06T05:59:56.479Z,88.78
2018-04-06T06:00:21.976Z,88.78
2018-04-06T06:00:47.483Z,88.97
2018-04-06T06:01:12.980Z,89.06
2018-04-06T06:01:38.483Z,89.11
2018-04-06T06:02:03.982Z,88.54
2018-04-06T06:02:29.481Z,88.73
2018-04-06T06:02:54.986Z,88.45
2018-04-06T06:03:20.489Z,88.54
2018-04-06T06:03:45.989Z,87.88
2018-04-06T06:04:11.494Z,87.59
2018-04-06T06:04:36.998Z,87.59
2018-04-06T06:05:02.480Z,87.69
2018-04-06T06:05:27.983Z,87.69
2018-04-06T06:05:53.478Z,87.69
2018-04-06T06:06:18.982Z,87.4
2018-04-06T06:06:44.482Z,86.83
2018-04-06T06:07:09.979Z,87.31
2018-04-06T06:07:35.480Z,87.21
2018-04-06T06:08:00.976Z,86.65
2018-04-06T06:08:26.480Z,86.83
2018-04-06T06:08:51.975Z,86.55
2018-04-06T06:09:17.475Z,86.83
2018-04-06T06:09:42.974Z,86.27
2018-04-06T06:10:08.481Z,86.27
2018-04-06T06:10:33.991Z,86.46
2018-04-06T06:10:59.489Z,86.74
2018-04-06T06:11:24.991Z,86.83
2018-04-06T06:11:50.500Z,86.08
2018-04-06T06:12:15.988Z,85.89
2018-04-06T06:12:41.497Z,86.41
2018-04-06T06:13:07.000Z,85.84
2018-04-06T06:13:32.506Z,86.12
2018-04-06T06:13:58.004Z,85.65
2018-04-06T06:14:23.500Z,85.93
2018-04-06T06:14:48.997Z,85.84
2018-04-06T06:15:14.491Z,85.84
2018-04-06T06:15:39.999Z,86.31
2018-04-06T06:16:05.495Z,86.41
2018-04-06T06:16:31.005Z,85.65
2018-04-06T06:16:56.504Z,85.46
2018-04-06T06:17:22.013Z,85.74
2018-04-06T06:17:47.520Z,85.36
2018-04-06T06:18:13.004Z,85.55
2018-04-06T06:18:38.517Z,85.17
2018-04-06T06:19:04.011Z,85.36
2018-04-06T06:19:29.508Z,84.99
2018-04-06T06:19:55.003Z,85.17
2018-04-06T06:20:20.510Z,85.55
2018-04-06T06:20:46.022Z,84.04
2018-04-06T06:21:11.495Z,84.7
2018-04-06T06:21:36.986Z,84.61
2018-04-06T06:22:02.487Z,84.08
2018-04-06T06:22:27.975Z,84.32
2018-04-06T06:22:53.472Z,83.66
2018-04-06T06:23:19.010Z,84.17
2018-04-06T06:23:44.464Z,84.17
2018-04-06T06:24:09.950Z,84.17
2018-04-06T06:24:35.446Z,83.98
2018-04-06T06:25:00.953Z,83.89
2018-04-06T06:25:26.462Z,83.51
2018-04-06T06:25:51.959Z,83.04
2018-04-06T06:26:17.458Z,82.66
2018-04-06T06:26:42.958Z,81.99
2018-04-06T06:27:08.456Z,82.47
2018-04-06T06:27:33.945Z,82.18
2018-04-06T06:27:59.446Z,82.09
2018-04-06T06:28:24.940Z,81.9
2018-04-06T06:28:50.451Z,82.18
2018-04-06T06:29:15.969Z,81.99
2018-04-06T06:29:41.448Z,81.81
2018-04-06T06:30:06.944Z,81.99
2018-04-06T06:30:32.440Z,82.28
2018-04-06T06:30:57.926Z,81.99
2018-04-06T06:31:23.418Z,81.43
2018-04-06T06:31:48.911Z,81.71
2018-04-06T06:32:14.408Z,81.43
2018-04-06T06:32:39.908Z,81.52
2018-04-06T06:33:05.405Z,81.24
2018-04-06T06:33:30.904Z,81.05
2018-04-06T06:33:56.399Z,81.14
2018-04-06T06:34:21.897Z,81.14
2018-04-06T06:34:47.398Z,81.33
2018-04-06T06:35:12.896Z,80.67
2018-04-06T06:35:38.397Z,80.67
2018-04-06T06:36:03.894Z,80.76
2018-04-06T06:36:29.395Z,80.95
2018-04-06T06:36:54.943Z,80.76
2018-04-06T06:37:20.396Z,81.24
2018-04-06T06:37:45.899Z,81.43
2018-04-06T06:38:11.400Z,81.33
2018-04-06T06:38:36.917Z,80.38
2018-04-06T06:39:02.413Z,80.86
2018-04-06T06:39:27.925Z,80.86
2018-04-06T06:39:53.400Z,80.38
2018-04-06T06:40:18.868Z,80.57
2018-04-06T06:40:44.367Z,80.38
2018-04-06T06:41:09.862Z,80.29
2018-04-06T06:41:35.378Z,80.29
2018-04-06T06:42:00.866Z,80.38
2018-04-06T06:42:26.361Z,80.48
2018-04-06T06:42:51.900Z,80.29
2018-04-06T06:43:17.359Z,80.29
2018-04-06T06:43:42.858Z,80.38
2018-04-06T06:44:08.359Z,80.38
2018-04-06T06:44:33.852Z,80.38
2018-04-06T06:44:59.348Z,80.19
2018-04-06T06:45:24.855Z,80.1
2018-04-06T06:45:50.357Z,79.91
2018-04-06T06:46:15.847Z,79.72
2018-04-06T06:46:41.333Z,79.95
2018-04-06T06:47:06.817Z,79.53
2018-04-06T06:47:32.340Z,79.85
2018-04-06T06:47:57.838Z,79.19
2018-04-06T06:48:23.341Z,79.19
2018-04-06T06:48:48.832Z,79.95
2018-04-06T06:49:14.326Z,79.1
2018-04-06T06:49:39.828Z,79.28
2018-04-06T06:50:05.336Z,79.38
2018-04-06T06:50:30.833Z,79.19
2018-04-06T06:50:56.324Z,79.28
2018-04-06T06:51:21.819Z,79.19
2018-04-06T06:51:47.306Z,79.38
2018-04-06T06:52:12.816Z,78.53
2018-04-06T06:52:38.308Z,78.53
2018-04-06T06:53:03.807Z,78.53
2018-04-06T06:53:29.305Z,78.34
2018-04-06T06:53:54.803Z,78.34
2018-04-06T06:54:20.321Z,78.72
2018-04-06T06:54:45.801Z,79.38
2018-04-06T06:55:11.301Z,78.72
2018-04-06T06:55:36.794Z,78.62
2018-04-06T06:56:02.292Z,78.72
2018-04-06T06:56:27.790Z,79.28
2018-04-06T06:56:53.291Z,79.47
2018-04-06T06:57:18.787Z,79.57
2018-04-06T06:57:44.277Z,79
2018-04-06T06:58:09.782Z,79.28
2018-04-06T06:58:35.283Z,78.62
2018-04-06T06:59:00.790Z,78.24
2018-04-06T06:59:26.289Z,78.05
2018-04-06T06:59:51.776Z,77.67
2018-04-06T07:00:17.270Z,77.67
2018-04-06T07:00:42.785Z,78
2018-04-06T07:01:08.272Z,78.05
2018-04-06T07:01:33.769Z,78.05
2018-04-06T07:01:59.262Z,78.28
2018-04-06T07:02:24.754Z,78.19
2018-04-06T07:02:50.259Z,77.43
2018-04-06T07:03:15.751Z,77.9
2018-04-06T07:03:41.239Z,77.24
2018-04-06T07:04:06.744Z,77.24
2018-04-06T07:04:32.233Z,77.05
2018-04-06T07:04:57.728Z,77.33
2018-04-06T07:05:23.216Z,77.33
2018-04-06T07:05:48.745Z,76.86
2018-04-06T07:06:14.266Z,77.33
2018-04-06T07:06:39.765Z,76.86
2018-04-06T07:07:05.282Z,76.57
2018-04-06T07:07:30.766Z,76.39
2018-04-06T07:07:56.277Z,75.53
2018-04-06T07:08:21.781Z,75.62
2018-04-06T07:08:47.277Z,75.72
2018-04-06T07:09:12.783Z,75.62
2018-04-06T07:09:38.282Z,75.91
2018-04-06T07:10:03.782Z,75.53
2018-04-06T07:10:29.282Z,75.62
2018-04-06T07:10:54.803Z,75.62
2018-04-06T07:11:20.249Z,75.91
2018-04-06T07:11:45.741Z,75.62
2018-04-06T07:12:11.243Z,75.81
2018-04-06T07:12:36.777Z,75.62
2018-04-06T07:13:02.284Z,75.91
2018-04-06T07:13:27.766Z,75.53
2018-04-06T07:13:53.278Z,75.43
2018-04-06T07:14:18.876Z,75.72
2018-04-06T07:14:44.442Z,75.91
2018-04-06T07:15:10.033Z,75.72
2018-04-06T07:15:35.546Z,76.01
2018-04-06T07:16:01.059Z,75.62
2018-04-06T07:16:26.601Z,76.48
2018-04-06T07:16:52.093Z,76.39
2018-04-06T07:17:17.554Z,76.52
2018-04-06T07:17:43.063Z,75.76
2018-04-06T07:18:08.548Z,75.67
2018-04-06T07:18:34.077Z,74.81
2018-04-06T07:18:59.572Z,74.52
2018-04-06T07:19:25.061Z,74.62
2018-04-06T07:19:50.575Z,74.43
2018-04-06T07:20:16.066Z,74.62
2018-04-06T07:20:41.539Z,74.33
2018-04-06T07:21:07.040Z,73.96
2018-04-06T07:21:32.555Z,74.62
2018-04-06T07:21:58.046Z,74.43
2018-04-06T07:22:23.536Z,74.15
2018-04-06T07:22:49.028Z,74.24
2018-04-06T07:23:14.513Z,74.15
2018-04-06T07:23:40.024Z,74.24
2018-04-06T07:24:05.554Z,74.24
2018-04-06T07:24:31.046Z,73.96
2018-04-06T07:24:56.568Z,74.43
2018-04-06T07:25:22.081Z,74.52
2018-04-06T07:25:47.599Z,75
2018-04-06T07:26:13.091Z,74.52
2018-04-06T07:26:38.590Z,74.05
2018-04-06T07:27:04.085Z,73.67
2018-04-06T07:27:29.594Z,73.76
2018-04-06T07:27:55.101Z,73.76
2018-04-06T07:28:20.607Z,73.86
2018-04-06T07:28:46.126Z,73.67
2018-04-06T07:29:11.614Z,73.67
2018-04-06T07:29:37.111Z,73.29
2018-04-06T07:30:02.603Z,72.53
2018-04-06T07:30:28.097Z,72.34
2018-04-06T07:30:53.593Z,72.25
2018-04-06T07:31:19.088Z,72.63
2018-04-06T07:31:44.584Z,72.91
2018-04-06T07:32:10.083Z,73.96
2018-04-06T07:32:35.597Z,73.76
2018-04-06T07:33:01.095Z,73.76
2018-04-06T07:33:26.616Z,73.48
2018-04-06T07:33:52.125Z,73.48
2018-04-06T07:34:17.620Z,72.72
2018-04-06T07:34:43.112Z,73.19
2018-04-06T07:35:08.607Z,73.96
2018-04-06T07:35:34.108Z,73.48
2018-04-06T07:35:59.581Z,73.48
2018-04-06T07:36:25.088Z,72.63
2018-04-06T07:36:50.593Z,72.34
2018-04-06T07:37:16.082Z,72.63
2018-04-06T07:37:41.578Z,73.38
2018-04-06T07:38:07.074Z,73.29
2018-04-06T07:38:32.585Z,73.19
2018-04-06T07:38:58.064Z,73.57
2018-04-06T07:39:23.568Z,73.67
2018-04-06T07:39:49.063Z,73.67
2018-04-06T07:40:14.578Z,73.57
2018-04-06T07:40:40.051Z,73.1
2018-04-06T07:41:05.556Z,73.57
2018-04-06T07:41:31.078Z,72.81
2018-04-06T07:41:56.568Z,72.91
2018-04-06T07:42:22.079Z,72.34
2018-04-06T07:42:47.579Z,72.15
2018-04-06T07:43:13.086Z,72.53
2018-04-06T07:43:38.611Z,72.06
2018-04-06T07:44:04.135Z,72.06
2018-04-06T07:44:29.642Z,71.9
2018-04-06T07:44:55.135Z,71.81
2018-04-06T07:45:20.638Z,71.81
2018-04-06T07:45:46.166Z,71.14
2018-04-06T07:46:11.645Z,71.23
2018-04-06T07:46:37.142Z,70.86
2018-04-06T07:47:02.642Z,71.04
2018-04-06T07:47:28.133Z,71.04
2018-04-06T07:47:53.639Z,70.76
2018-04-06T07:48:19.139Z,70.29
2018-04-06T07:48:44.634Z,70.57
2018-04-06T07:49:10.145Z,70.29
2018-04-06T07:49:35.634Z,70.86
2018-04-06T07:50:01.133Z,71.43
2018-04-06T07:50:26.628Z,71.33
2018-04-06T07:50:52.124Z,70.95
2018-04-06T07:51:17.637Z,70
2018-04-06T07:51:43.133Z,70.19
2018-04-06T07:52:08.631Z,70.48
2018-04-06T07:53:17.344Z,70.48
2018-04-06T07:53:42.858Z,70.57
2018-04-06T07:54:08.360Z,70.86
2018-04-06T07:54:33.854Z,70.57
2018-04-06T07:54:59.381Z,70.29
2018-04-06T07:55:24.876Z,69.81
2018-04-06T07:55:50.372Z,69.71
2018-04-06T07:56:15.860Z,69.71
2018-04-06T07:56:41.359Z,69.53
2018-04-06T07:57:06.872Z,69.05
2018-04-06T07:57:32.390Z,69.53
2018-04-06T07:57:57.891Z,69.15
2018-04-06T07:58:23.372Z,69.34
2018-04-06T07:58:48.855Z,69.43
2018-04-06T07:59:14.379Z,69.71
2018-04-06T07:59:39.892Z,69.34
2018-04-06T08:00:05.369Z,68.86
2018-04-06T08:00:30.883Z,69.15
2018-04-06T08:00:56.374Z,68.58
2018-04-06T08:01:21.870Z,68.77
2018-04-06T08:01:47.362Z,69.34
2018-04-06T08:02:12.862Z,69.53
2018-04-06T08:02:38.350Z,69.15
2018-04-06T08:03:03.844Z,69.15
2018-04-06T08:03:29.338Z,68.99
2018-04-06T08:03:54.825Z,68.58
2018-04-06T08:04:20.327Z,68.67
2018-04-06T08:04:45.821Z,68.71
2018-04-06T08:05:11.313Z,68.67
2018-04-06T08:05:36.809Z,68.61
2018-04-06T08:06:02.303Z,68.9
2018-04-06T08:06:27.805Z,68.52
2018-04-06T08:06:53.320Z,68.39
2018-04-06T08:07:18.807Z,68.48
2018-04-06T08:07:44.294Z,68.42
2018-04-06T08:08:09.797Z,68.13
2018-04-06T08:08:35.292Z,68.13
2018-04-06T08:09:00.803Z,68.23
2018-04-06T08:09:26.301Z,67.91
2018-04-06T08:09:51.789Z,68.42
2018-04-06T08:10:17.362Z,67.94
2018-04-06T08:10:42.842Z,67.57
2018-04-06T08:11:08.338Z,67.72
2018-04-06T08:11:33.834Z,67.44
2018-04-06T08:11:59.320Z,67.25
2018-04-06T08:12:24.815Z,67.76
2018-04-06T08:12:50.315Z,67.91
2018-04-06T08:13:15.788Z,67.72
2018-04-06T08:13:41.288Z,67.47
2018-04-06T08:14:06.788Z,68.13
2018-04-06T08:14:32.285Z,68.61
2018-04-06T08:14:57.788Z,68.13
2018-04-06T08:15:23.291Z,68.01
2018-04-06T08:15:48.795Z,68.1
2018-04-06T08:16:14.280Z,68.01
2018-04-06T08:16:39.769Z,68.1
2018-04-06T08:17:05.278Z,67.91
2018-04-06T08:17:30.781Z,67.44
2018-04-06T08:17:56.275Z,67.82
2018-04-06T08:18:21.755Z,68.39
2018-04-06T08:18:47.254Z,68.67
2018-04-06T08:19:12.738Z,68.48
2018-04-06T08:19:38.236Z,68.39
2018-04-06T08:20:03.736Z,68.77
2018-04-06T08:20:29.226Z,68.71
2018-04-06T08:20:54.727Z,69.18
2018-04-06T08:21:20.226Z,69.85
2018-04-06T08:21:45.724Z,69.46
2018-04-06T08:22:11.205Z,69.56
2018-04-06T08:22:36.697Z,69.46
2018-04-06T08:23:02.191Z,69.37
2018-04-06T08:23:27.665Z,68.99
2018-04-06T08:23:53.166Z,68.99
2018-04-06T08:24:18.679Z,69.37
2018-04-06T08:24:44.162Z,68.99
2018-04-06T08:25:09.681Z,69.18
2018-04-06T08:25:35.187Z,69.27
2018-04-06T08:26:00.691Z,69.27
2018-04-06T08:26:26.233Z,69.56
2018-04-06T08:26:51.688Z,68.71
2018-04-06T08:27:17.188Z,69.27
2018-04-06T08:27:42.693Z,69.05
2018-04-06T08:28:08.194Z,69.27
2018-04-06T08:28:33.712Z,68.9
2018-04-06T08:28:59.211Z,69.46
2018-04-06T08:29:24.724Z,69.56
2018-04-06T08:29:50.222Z,69.56
2018-04-06T08:30:15.728Z,69.37
2018-04-06T08:30:41.211Z,69.66
2018-04-06T08:31:06.701Z,69.56
2018-04-06T08:31:32.204Z,69.37
2018-04-06T08:31:57.695Z,69.85
2018-04-06T08:32:23.200Z,69.27
2018-04-06T08:32:48.692Z,69.09
2018-04-06T08:33:14.190Z,68.99
2018-04-06T08:33:39.691Z,69.18
2018-04-06T08:34:05.200Z,68.9
2018-04-06T08:34:30.746Z,68.52
2018-04-06T08:34:56.244Z,68.71
2018-04-06T08:35:21.690Z,68.71
2018-04-06T08:35:47.167Z,68.8
2018-04-06T08:36:12.659Z,68.33
2018-04-06T08:36:38.157Z,68.9
2018-04-06T08:37:03.648Z,68.42
2018-04-06T08:37:29.151Z,67.94
2018-04-06T08:37:54.649Z,67.47
2018-04-06T08:38:20.152Z,67.76
2018-04-06T08:38:45.649Z,67.57
2018-04-06T08:39:11.158Z,67.57
2018-04-06T08:39:36.665Z,67.28
2018-04-06T08:40:02.167Z,67.57
2018-04-06T08:40:27.679Z,67.94
2018-04-06T08:40:53.169Z,68.33
2018-04-06T08:41:18.657Z,68.52
2018-04-06T08:41:44.154Z,68.42
2018-04-06T08:42:09.661Z,68.8
2018-04-06T08:42:35.156Z,68.61
2018-04-06T08:43:00.656Z,68.93
2018-04-06T08:43:26.152Z,68.55
2018-04-06T08:43:51.644Z,67.6
2018-04-06T08:44:17.141Z,67.79
2018-04-06T08:44:42.670Z,66.46
2018-04-06T08:45:08.178Z,65.99
2018-04-06T08:45:33.680Z,66.36
2018-04-06T08:45:59.168Z,66.74
2018-04-06T08:46:24.661Z,66.84
2018-04-06T08:46:50.134Z,67.03
2018-04-06T08:47:15.642Z,65.99
2018-04-06T08:47:41.134Z,65.6
2018-04-06T08:48:06.669Z,66.08
2018-04-06T08:48:32.126Z,65.8
2018-04-06T08:48:57.626Z,65.03
2018-04-06T08:49:23.138Z,65.03
2018-04-06T08:49:48.638Z,65.03
2018-04-06T08:50:14.118Z,65.32
2018-04-06T08:50:39.632Z,65.03
2018-04-06T08:51:05.122Z,64.56
2018-04-06T08:51:30.615Z,64.84
2018-04-06T08:51:56.127Z,64.18
2018-04-06T08:52:21.631Z,63.42
2018-04-06T08:52:47.113Z,63.42
2018-04-06T08:53:12.600Z,63.51
2018-04-06T08:53:38.140Z,62.85
2018-04-06T08:54:03.645Z,63.32
2018-04-06T08:54:29.192Z,63.79
2018-04-06T08:54:54.710Z,63.83
2018-04-06T08:55:20.254Z,63.07
2018-04-06T08:55:45.765Z,62.49
2018-04-06T08:56:11.337Z,62.02
2018-04-06T08:56:36.832Z,61.83
2018-04-06T08:57:02.337Z,61.35
2018-04-06T08:57:27.880Z,61.64
2018-04-06T08:57:53.382Z,61.93
2018-04-06T08:58:18.913Z,61.93
2018-04-06T08:58:44.420Z,62.12
2018-04-06T08:59:09.946Z,62.02
2018-04-06T08:59:35.426Z,62.4
2018-04-06T09:00:00.926Z,62.12
2018-04-06T09:00:26.430Z,61.16
2018-04-06T09:00:51.936Z,60.97
2018-04-06T09:01:17.559Z,60.5
2018-04-06T09:01:43.082Z,60.02
2018-04-06T09:02:08.597Z,60.12
2018-04-06T09:02:34.115Z,60.12
2018-04-06T09:02:59.672Z,60.02
2018-04-06T09:03:25.191Z,60.6
2018-04-06T09:03:50.805Z,59.64
2018-04-06T09:04:16.353Z,59.83
2018-04-06T09:04:41.934Z,59.07
2018-04-06T09:05:07.443Z,59.83
2018-04-06T09:05:32.973Z,59.17
2018-04-06T09:05:58.518Z,59.67
2018-04-06T09:06:24.010Z,59.96
2018-04-06T09:06:49.515Z,60.15
2018-04-06T09:07:15.012Z,60.34
2018-04-06T09:07:40.542Z,60.44
2018-04-06T09:08:06.048Z,60.05
2018-04-06T09:08:31.511Z,59.86
2018-04-06T09:08:56.990Z,59.77
2018-04-06T09:09:22.498Z,59.1
2018-04-06T09:09:48.036Z,59.39
2018-04-06T09:10:13.567Z,59.39
2018-04-06T09:10:39.039Z,59.2
2018-04-06T09:11:04.531Z,58.81
2018-04-06T09:11:30.099Z,59.2
2018-04-06T09:11:55.648Z,58.91
2018-04-06T09:12:21.169Z,58.91
2018-04-06T09:12:46.731Z,58.62
2018-04-06T09:13:12.152Z,57.87
2018-04-06T09:13:37.652Z,57.96
2018-04-06T09:14:03.133Z,57.96
2018-04-06T09:14:28.623Z,57.87
2018-04-06T09:14:54.123Z,58.44
2018-04-06T09:15:19.630Z,58.44
2018-04-06T09:15:45.132Z,58.06
2018-04-06T09:16:10.612Z,57.96
2018-04-06T09:16:36.096Z,57.39
2018-04-06T09:17:01.642Z,57.23
2018-04-06T09:17:27.118Z,56.94
2018-04-06T09:17:52.617Z,57.23
2018-04-06T09:18:18.158Z,57.04
2018-04-06T09:18:43.718Z,55.99
2018-04-06T09:19:09.250Z,55.13
2018-04-06T09:19:34.743Z,54.91
2018-04-06T09:20:00.212Z,54.63
2018-04-06T09:20:25.706Z,54.91
2018-04-06T09:20:51.222Z,54.91
2018-04-06T09:21:16.724Z,55.39
2018-04-06T09:21:42.218Z,55.42
2018-04-06T09:22:07.710Z,56.34
2018-04-06T09:22:33.233Z,56.63
2018-04-06T09:22:58.780Z,55.8
2018-04-06T09:23:24.254Z,56.63
2018-04-06T09:23:49.752Z,55.49
2018-04-06T09:24:15.249Z,55.42
2018-04-06T09:24:40.743Z,55.22
2018-04-06T09:25:06.220Z,54.66
2018-04-06T09:25:31.691Z,54.75
2018-04-06T09:25:57.202Z,54.66
2018-04-06T09:26:22.704Z,54.47
2018-04-06T09:26:48.210Z,54.63
2018-04-06T09:27:13.714Z,54.66
2018-04-06T09:27:39.212Z,54.75
2018-04-06T09:28:04.730Z,54.56
2018-04-06T09:28:30.198Z,55.32
2018-04-06T09:28:55.688Z,55.22
2018-04-06T09:29:21.176Z,55.29
2018-04-06T09:29:46.710Z,54.66
2018-04-06T09:30:12.206Z,54.85
2018-04-06T09:30:37.709Z,54.75
2018-04-06T09:31:03.203Z,54.08